sensor_id;sensor_type;location;lat;lon;timestamp;pressure;altitude;pressure_sealevel;temperature;humidity
56334;BME280;42240;53.626;55.886;2023-11-21T00:01:26;76529.13;;;-145.10;100.00
56334;BME280;42240;53.626;55.886;2023-11-21T00:03:18;76525.16;;;-145.10;100.00
56334;BME280;42240;53.626;55.886;2023-11-21T00:05:10;76503.41;;;-145.10;100.00
56334;BME280;42240;53.626;55.886;2023-11-21T00:07:02;76509.34;;;-145.10;100.00
56334;BME280;42240;53.626;55.886;2023-11-21T00:08:54;76503.41;;;-145.10;100.00
56334;BME280;42240;53.626;55.886;2023-11-21T00:10:46;76511.31;;;-145.10;100.00
56334;BME280;42240;53.626;55.886;2023-11-21T00:12:39;76483.63;;;-145.10;100.00
56334;BME280;42240;53.626;55.886;2023-11-21T00:14:33;76501.44;;;-145.10;100.00
56334;BME280;42240;53.626;55.886;2023-11-21T00:16:24;76461.88;;;-145.10;100.00
56334;BME280;42240;53.626;55.886;2023-11-21T00:18:16;76463.88;;;-145.10;100.00
56334;BME280;42240;53.626;55.886;2023-11-21T00:20:08;76444.09;;;-145.10;100.00
56334;BME280;42240;53.626;55.886;2023-11-21T00:22:04;76432.22;;;-145.10;100.00
56334;BME280;42240;53.626;55.886;2023-11-21T00:23:57;76434.19;;;-145.10;100.00
56334;BME280;42240;53.626;55.886;2023-11-21T00:25:49;76400.59;;;-145.10;100.00
56334;BME280;42240;53.626;55.886;2023-11-21T00:27:41;76418.38;;;-145.10;100.00
56334;BME280;42240;53.626;55.886;2023-11-21T00:29:32;76406.53;;;-145.10;100.00
56334;BME280;42240;53.626;55.886;2023-11-21T00:31:24;76372.91;;;-145.10;100.00
56334;BME280;42240;53.626;55.886;2023-11-21T00:33:15;76390.69;;;-145.10;100.00
56334;BME280;42240;53.626;55.886;2023-11-21T00:35:06;76398.63;;;-145.10;100.00
56334;BME280;42240;53.626;55.886;2023-11-21T00:36:58;76398.63;;;-145.10;100.00
56334;BME280;42240;53.626;55.886;2023-11-21T00:38:49;76394.66;;;-145.10;100.00
56334;BME280;42240;53.626;55.886;2023-11-21T00:40:41;76406.53;;;-145.10;100.00
56334;BME280;42240;53.626;55.886;2023-11-21T00:42:33;76422.34;;;-145.10;100.00
56334;BME280;42240;53.626;55.886;2023-11-21T00:44:25;76420.38;;;-145.10;100.00
56334;BME280;42240;53.626;55.886;2023-11-21T00:46:16;76422.34;;;-145.10;100.00
56334;BME280;42240;53.626;55.886;2023-11-21T00:48:07;76420.38;;;-145.10;100.00
56334;BME280;42240;53.626;55.886;2023-11-21T00:49:59;76450.03;;;-145.10;100.00
56334;BME280;42240;53.626;55.886;2023-11-21T00:51:51;76438.16;;;-145.10;100.00
56334;BME280;42240;53.626;55.886;2023-11-21T00:53:43;76444.09;;;-145.10;100.00
56334;BME280;42240;53.626;55.886;2023-11-21T00:55:35;76422.34;;;-145.10;100.00
56334;BME280;42240;53.626;55.886;2023-11-21T00:57:27;76455.97;;;-145.10;100.00
56334;BME280;42240;53.626;55.886;2023-11-21T00:59:18;76438.16;;;-145.10;100.00
56334;BME280;42240;53.626;55.886;2023-11-21T01:01:10;76450.03;;;-145.10;100.00
56334;BME280;42240;53.626;55.886;2023-11-21T01:03:01;76461.88;;;-145.10;100.00
56334;BME280;42240;53.626;55.886;2023-11-21T01:04:53;76457.94;;;-145.10;100.00
56334;BME280;42240;53.626;55.886;2023-11-21T01:06:45;76493.53;;;-145.10;100.00
56334;BME280;42240;53.626;55.886;2023-11-21T01:08:36;76471.78;;;-145.10;100.00
56334;BME280;42240;53.626;55.886;2023-11-21T01:10:28;76465.84;;;-145.10;100.00
56334;BME280;42240;53.626;55.886;2023-11-21T01:12:19;76436.19;;;-145.10;100.00
56334;BME280;42240;53.626;55.886;2023-11-21T01:14:11;76450.03;;;-145.10;100.00
56334;BME280;42240;53.626;55.886;2023-11-21T01:16:04;76434.19;;;-145.10;100.00
56334;BME280;42240;53.626;55.886;2023-11-21T01:17:57;76481.66;;;-145.10;100.00
56334;BME280;42240;53.626;55.886;2023-11-21T01:19:49;76455.97;;;-145.10;100.00
56334;BME280;42240;53.626;55.886;2023-11-21T01:21:41;76463.88;;;-145.10;100.00
56334;BME280;42240;53.626;55.886;2023-11-21T01:23:32;76436.19;;;-145.10;100.00
56334;BME280;42240;53.626;55.886;2023-11-21T01:25:24;76434.19;;;-145.10;100.00
56334;BME280;42240;53.626;55.886;2023-11-21T01:27:15;76422.34;;;-145.10;100.00
56334;BME280;42240;53.626;55.886;2023-11-21T01:29:08;76418.38;;;-145.10;100.00
56334;BME280;42240;53.626;55.886;2023-11-21T01:30:59;76442.13;;;-145.10;100.00
56334;BME280;42240;53.626;55.886;2023-11-21T01:32:51;76420.38;;;-145.10;100.00
56334;BME280;42240;53.626;55.886;2023-11-21T01:34:42;76420.38;;;-145.10;100.00
56334;BME280;42240;53.626;55.886;2023-11-21T01:36:33;76418.38;;;-145.10;100.00
56334;BME280;42240;53.626;55.886;2023-11-21T01:38:25;76418.38;;;-145.10;100.00
56334;BME280;42240;53.626;55.886;2023-11-21T01:40:17;76390.69;;;-145.10;100.00
56334;BME280;42240;53.626;55.886;2023-11-21T01:42:08;76384.78;;;-145.10;100.00
56334;BME280;42240;53.626;55.886;2023-11-21T01:44:00;76361.03;;;-145.10;100.00
56334;BME280;42240;53.626;55.886;2023-11-21T01:45:52;76349.19;;;-145.10;100.00
56334;BME280;42240;53.626;55.886;2023-11-21T01:47:45;76382.78;;;-145.10;100.00
56334;BME280;42240;53.626;55.886;2023-11-21T01:49:36;76359.06;;;-145.10;100.00
56334;BME280;42240;53.626;55.886;2023-11-21T01:51:29;76349.19;;;-145.10;100.00
56334;BME280;42240;53.626;55.886;2023-11-21T01:53:23;76339.28;;;-145.10;100.00
56334;BME280;42240;53.626;55.886;2023-11-21T01:55:17;76343.25;;;-145.10;100.00
56334;BME280;42240;53.626;55.886;2023-11-21T01:57:14;76341.28;;;-145.10;100.00
56334;BME280;42240;53.626;55.886;2023-11-21T01:59:06;76345.22;;;-145.10;100.00
56334;BME280;42240;53.626;55.886;2023-11-21T02:00:58;76313.59;;;-145.10;100.00
56334;BME280;42240;53.626;55.886;2023-11-21T02:02:52;76319.53;;;-145.10;100.00
56334;BME280;42240;53.626;55.886;2023-11-21T02:04:44;76321.50;;;-145.10;100.00
56334;BME280;42240;53.626;55.886;2023-11-21T02:06:36;76325.44;;;-145.10;100.00
56334;BME280;42240;53.626;55.886;2023-11-21T02:08:27;76309.63;;;-145.10;100.00
56334;BME280;42240;53.626;55.886;2023-11-21T02:10:19;76297.78;;;-145.10;100.00
56334;BME280;42240;53.626;55.886;2023-11-21T02:12:18;76264.16;;;-145.10;100.00
56334;BME280;42240;53.626;55.886;2023-11-21T02:14:09;76283.94;;;-145.10;100.00
56334;BME280;42240;53.626;55.886;2023-11-21T02:16:01;76274.03;;;-145.10;100.00
56334;BME280;42240;53.626;55.886;2023-11-21T02:17:53;76295.78;;;-145.10;100.00
56334;BME280;42240;53.626;55.886;2023-11-21T02:19:45;76276.03;;;-145.10;100.00
56334;BME280;42240;53.626;55.886;2023-11-21T02:21:58;76278.00;;;-145.10;100.00
56334;BME280;42240;53.626;55.886;2023-11-21T02:23:55;76287.88;;;-145.10;100.00
56334;BME280;42240;53.626;55.886;2023-11-21T02:25:47;76291.84;;;-145.10;100.00
56334;BME280;42240;53.626;55.886;2023-11-21T02:27:39;76258.22;;;-145.10;100.00
56334;BME280;42240;53.626;55.886;2023-11-21T02:29:30;76250.31;;;-145.10;100.00
56334;BME280;42240;53.626;55.886;2023-11-21T02:31:22;76232.53;;;-145.10;100.00
56334;BME280;42240;53.626;55.886;2023-11-21T02:33:14;76248.34;;;-145.10;100.00
56334;BME280;42240;53.626;55.886;2023-11-21T02:35:06;76224.63;;;-145.10;100.00
56334;BME280;42240;53.626;55.886;2023-11-21T02:36:59;76260.22;;;-145.10;100.00
56334;BME280;42240;53.626;55.886;2023-11-21T02:38:51;76220.66;;;-145.10;100.00
56334;BME280;42240;53.626;55.886;2023-11-21T02:40:42;76216.72;;;-145.10;100.00
56334;BME280;42240;53.626;55.886;2023-11-21T02:42:34;76200.88;;;-145.10;100.00
56334;BME280;42240;53.626;55.886;2023-11-21T02:44:25;76204.84;;;-145.10;100.00
56334;BME280;42240;53.626;55.886;2023-11-21T02:46:17;76210.78;;;-145.10;100.00
56334;BME280;42240;53.626;55.886;2023-11-21T02:48:08;76200.88;;;-145.10;100.00
56334;BME280;42240;53.626;55.886;2023-11-21T02:50:00;76216.72;;;-145.10;100.00
56334;BME280;42240;53.626;55.886;2023-11-21T02:51:52;76204.84;;;-145.10;100.00
56334;BME280;42240;53.626;55.886;2023-11-21T02:53:44;76153.44;;;-145.10;100.00
56334;BME280;42240;53.626;55.886;2023-11-21T02:55:38;76202.88;;;-145.10;100.00
56334;BME280;42240;53.626;55.886;2023-11-21T02:57:30;76161.34;;;-145.10;100.00
56334;BME280;42240;53.626;55.886;2023-11-21T02:59:21;76177.16;;;-145.10;100.00
56334;BME280;42240;53.626;55.886;2023-11-21T03:01:12;76161.34;;;-145.10;100.00
56334;BME280;42240;53.626;55.886;2023-11-21T03:03:05;76181.13;;;-145.10;100.00
56334;BME280;42240;53.626;55.886;2023-11-21T03:04:56;76163.31;;;-145.10;100.00
56334;BME280;42240;53.626;55.886;2023-11-21T03:06:48;76163.31;;;-145.10;100.00
56334;BME280;42240;53.626;55.886;2023-11-21T03:08:40;76151.47;;;-145.10;100.00
56334;BME280;42240;53.626;55.886;2023-11-21T03:10:33;76137.63;;;-145.10;100.00
56334;BME280;42240;53.626;55.886;2023-11-21T03:12:24;76139.59;;;-145.10;100.00
56334;BME280;42240;53.626;55.886;2023-11-21T03:14:16;76104.00;;;-145.10;100.00
56334;BME280;42240;53.626;55.886;2023-11-21T03:16:10;76143.56;;;-145.10;100.00
56334;BME280;42240;53.626;55.886;2023-11-21T03:18:03;76123.78;;;-145.10;100.00
56334;BME280;42240;53.626;55.886;2023-11-21T03:19:56;76100.06;;;-145.10;100.00
56334;BME280;42240;53.626;55.886;2023-11-21T03:21:48;76078.31;;;-145.10;100.00
56334;BME280;42240;53.626;55.886;2023-11-21T03:23:39;76094.13;;;-145.10;100.00
56334;BME280;42240;53.626;55.886;2023-11-21T03:25:30;76090.16;;;-145.10;100.00
56334;BME280;42240;53.626;55.886;2023-11-21T03:27:22;76094.13;;;-145.10;100.00
56334;BME280;42240;53.626;55.886;2023-11-21T03:29:13;76060.50;;;-145.10;100.00
56334;BME280;42240;53.626;55.886;2023-11-21T03:31:06;76062.50;;;-145.10;100.00
56334;BME280;42240;53.626;55.886;2023-11-21T03:32:57;76034.81;;;-145.10;100.00
56334;BME280;42240;53.626;55.886;2023-11-21T03:34:58;76052.59;;;-145.10;100.00
56334;BME280;42240;53.626;55.886;2023-11-21T03:36:51;76038.75;;;-145.10;100.00
56334;BME280;42240;53.626;55.886;2023-11-21T03:38:43;76044.69;;;-145.10;100.00
56334;BME280;42240;53.626;55.886;2023-11-21T03:40:39;76036.78;;;-145.10;100.00
56334;BME280;42240;53.626;55.886;2023-11-21T03:42:31;76003.16;;;-145.10;100.00
56334;BME280;42240;53.626;55.886;2023-11-21T03:44:23;75987.34;;;-145.10;100.00
56334;BME280;42240;53.626;55.886;2023-11-21T03:46:15;76003.16;;;-145.10;100.00
56334;BME280;42240;53.626;55.886;2023-11-21T03:48:07;76022.94;;;-145.10;100.00
56334;BME280;42240;53.626;55.886;2023-11-21T03:50:01;75989.34;;;-145.10;100.00
56334;BME280;42240;53.626;55.886;2023-11-21T03:51:52;75985.38;;;-145.10;100.00
56334;BME280;42240;53.626;55.886;2023-11-21T03:53:43;75969.56;;;-145.10;100.00
56334;BME280;42240;53.626;55.886;2023-11-21T03:55:37;75957.69;;;-145.10;100.00
56334;BME280;42240;53.626;55.886;2023-11-21T03:57:28;75971.53;;;-145.10;100.00
56334;BME280;42240;53.626;55.886;2023-11-21T03:59:20;75991.31;;;-145.10;100.00
56334;BME280;42240;53.626;55.886;2023-11-21T04:01:21;75951.78;;;-145.10;100.00
56334;BME280;42240;53.626;55.886;2023-11-21T04:03:13;75953.75;;;-145.10;100.00
56334;BME280;42240;53.626;55.886;2023-11-21T04:05:05;75963.63;;;-145.10;100.00
56334;BME280;42240;53.626;55.886;2023-11-21T04:06:58;75951.78;;;-145.10;100.00
56334;BME280;42240;53.626;55.886;2023-11-21T04:08:49;75951.78;;;-145.10;100.00
56334;BME280;42240;53.626;55.886;2023-11-21T04:10:41;75945.84;;;-145.10;100.00
56334;BME280;42240;53.626;55.886;2023-11-21T04:12:33;75945.84;;;-145.10;100.00
56334;BME280;42240;53.626;55.886;2023-11-21T04:14:24;75947.81;;;-145.10;100.00
56334;BME280;42240;53.626;55.886;2023-11-21T04:16:15;75977.47;;;-145.10;100.00
56334;BME280;42240;53.626;55.886;2023-11-21T04:18:07;75955.72;;;-145.10;100.00
56334;BME280;42240;53.626;55.886;2023-11-21T04:20:05;75918.16;;;-145.10;100.00
56334;BME280;42240;53.626;55.886;2023-11-21T04:21:59;75928.03;;;-145.10;100.00
56334;BME280;42240;53.626;55.886;2023-11-21T04:23:51;75922.13;;;-145.10;100.00
56334;BME280;42240;53.626;55.886;2023-11-21T04:25:42;75892.47;;;-145.10;100.00
56334;BME280;42240;53.626;55.886;2023-11-21T04:27:34;75902.34;;;-145.10;100.00
56334;BME280;42240;53.626;55.886;2023-11-21T04:29:25;75945.84;;;-145.10;100.00
56334;BME280;42240;53.626;55.886;2023-11-21T04:31:18;75928.03;;;-145.10;100.00
56334;BME280;42240;53.626;55.886;2023-11-21T04:33:09;75924.09;;;-145.10;100.00
56334;BME280;42240;53.626;55.886;2023-11-21T04:35:00;75896.41;;;-145.10;100.00
56334;BME280;42240;53.626;55.886;2023-11-21T04:36:53;75924.09;;;-145.10;100.00
56334;BME280;42240;53.626;55.886;2023-11-21T04:38:44;75910.25;;;-145.10;100.00
56334;BME280;42240;53.626;55.886;2023-11-21T04:40:36;75928.03;;;-145.10;100.00
56334;BME280;42240;53.626;55.886;2023-11-21T04:42:27;75918.16;;;-145.10;100.00
56334;BME280;42240;53.626;55.886;2023-11-21T04:44:19;75916.19;;;-145.10;100.00
56334;BME280;42240;53.626;55.886;2023-11-21T04:46:11;75884.56;;;-145.10;100.00
56334;BME280;42240;53.626;55.886;2023-11-21T04:48:03;75888.50;;;-145.10;100.00
56334;BME280;42240;53.626;55.886;2023-11-21T04:49:55;75894.44;;;-145.10;100.00
56334;BME280;42240;53.626;55.886;2023-11-21T04:51:46;75886.53;;;-145.10;100.00
56334;BME280;42240;53.626;55.886;2023-11-21T04:53:38;75898.38;;;-145.10;100.00
56334;BME280;42240;53.626;55.886;2023-11-21T04:55:30;75892.47;;;-145.10;100.00
56334;BME280;42240;53.626;55.886;2023-11-21T04:57:21;75882.56;;;-145.10;100.00
56334;BME280;42240;53.626;55.886;2023-11-21T04:59:12;75888.50;;;-145.10;100.00
56334;BME280;42240;53.626;55.886;2023-11-21T05:01:04;75872.69;;;-145.10;100.00
56334;BME280;42240;53.626;55.886;2023-11-21T05:02:58;75866.75;;;-145.10;100.00
56334;BME280;42240;53.626;55.886;2023-11-21T05:04:49;75868.72;;;-145.10;100.00
56334;BME280;42240;53.626;55.886;2023-11-21T05:06:41;75864.78;;;-145.10;100.00
56334;BME280;42240;53.626;55.886;2023-11-21T05:08:32;75837.09;;;-145.10;100.00
56334;BME280;42240;53.626;55.886;2023-11-21T05:10:23;75864.78;;;-145.10;100.00
56334;BME280;42240;53.626;55.886;2023-11-21T05:12:14;75856.88;;;-145.10;100.00
56334;BME280;42240;53.626;55.886;2023-11-21T05:14:06;75864.78;;;-145.10;100.00
56334;BME280;42240;53.626;55.886;2023-11-21T05:15:57;75860.81;;;-145.10;100.00
56334;BME280;42240;53.626;55.886;2023-11-21T05:17:49;75854.91;;;-145.10;100.00
56334;BME280;42240;53.626;55.886;2023-11-21T05:19:43;75854.91;;;-145.10;100.00
56334;BME280;42240;53.626;55.886;2023-11-21T05:21:39;75856.88;;;-145.10;100.00
56334;BME280;42240;53.626;55.886;2023-11-21T05:23:31;75833.16;;;-145.10;100.00
56334;BME280;42240;53.626;55.886;2023-11-21T05:25:22;75856.88;;;-145.10;100.00
56334;BME280;42240;53.626;55.886;2023-11-21T05:27:13;75827.22;;;-145.10;100.00
56334;BME280;42240;53.626;55.886;2023-11-21T05:29:05;75817.31;;;-145.10;100.00
56334;BME280;42240;53.626;55.886;2023-11-21T05:30:56;75811.41;;;-145.10;100.00
56334;BME280;42240;53.626;55.886;2023-11-21T05:33:03;75809.41;;;-145.10;100.00
56334;BME280;42240;53.626;55.886;2023-11-21T05:34:55;75821.28;;;-145.10;100.00
56334;BME280;42240;53.626;55.886;2023-11-21T05:36:46;75785.69;;;-145.10;100.00
56334;BME280;42240;53.626;55.886;2023-11-21T05:38:38;75813.38;;;-145.10;100.00
56334;BME280;42240;53.626;55.886;2023-11-21T05:40:29;75789.66;;;-145.10;100.00
56334;BME280;42240;53.626;55.886;2023-11-21T05:42:21;75761.97;;;-145.10;100.00
56334;BME280;42240;53.626;55.886;2023-11-21T05:44:13;75750.13;;;-145.10;100.00
56334;BME280;42240;53.626;55.886;2023-11-21T05:46:05;75765.94;;;-145.10;100.00
56334;BME280;42240;53.626;55.886;2023-11-21T05:47:58;75773.84;;;-145.10;100.00
56334;BME280;42240;53.626;55.886;2023-11-21T05:49:50;75752.09;;;-145.10;100.00
56334;BME280;42240;53.626;55.886;2023-11-21T05:51:42;75769.88;;;-145.10;100.00
56334;BME280;42240;53.626;55.886;2023-11-21T05:53:34;75752.09;;;-145.10;100.00
56334;BME280;42240;53.626;55.886;2023-11-21T05:55:26;75738.25;;;-145.10;100.00
56334;BME280;42240;53.626;55.886;2023-11-21T05:57:19;75744.19;;;-145.10;100.00
56334;BME280;42240;53.626;55.886;2023-11-21T05:59:10;75758.03;;;-145.10;100.00
56334;BME280;42240;53.626;55.886;2023-11-21T06:01:02;75750.13;;;-145.10;100.00
56334;BME280;42240;53.626;55.886;2023-11-21T06:02:57;75698.72;;;-145.10;100.00
56334;BME280;42240;53.626;55.886;2023-11-21T06:04:48;75726.38;;;-145.10;100.00
56334;BME280;42240;53.626;55.886;2023-11-21T06:06:40;75676.97;;;-145.10;100.00
56334;BME280;42240;53.626;55.886;2023-11-21T06:08:31;75694.75;;;-145.10;100.00
56334;BME280;42240;53.626;55.886;2023-11-21T06:10:23;75678.94;;;-145.10;100.00
56334;BME280;42240;53.626;55.886;2023-11-21T06:12:16;75678.94;;;-145.10;100.00
56334;BME280;42240;53.626;55.886;2023-11-21T06:14:07;75712.56;;;-145.10;100.00
56334;BME280;42240;53.626;55.886;2023-11-21T06:16:00;75674.97;;;-145.10;100.00
56334;BME280;42240;53.626;55.886;2023-11-21T06:17:51;75663.13;;;-145.10;100.00
56334;BME280;42240;53.626;55.886;2023-11-21T06:19:44;75680.91;;;-145.10;100.00
56334;BME280;42240;53.626;55.886;2023-11-21T06:21:37;75655.22;;;-145.10;100.00
56334;BME280;42240;53.626;55.886;2023-11-21T06:23:28;75631.50;;;-145.10;100.00
56334;BME280;42240;53.626;55.886;2023-11-21T06:25:19;75643.34;;;-145.10;100.00
56334;BME280;42240;53.626;55.886;2023-11-21T06:27:11;75615.69;;;-145.10;100.00
56334;BME280;42240;53.626;55.886;2023-11-21T06:29:02;75643.34;;;-145.10;100.00
56334;BME280;42240;53.626;55.886;2023-11-21T06:30:54;75680.91;;;-145.10;100.00
56334;BME280;42240;53.626;55.886;2023-11-21T06:32:45;75667.06;;;-145.10;100.00
56334;BME280;42240;53.626;55.886;2023-11-21T06:34:38;75639.41;;;-145.10;100.00
56334;BME280;42240;53.626;55.886;2023-11-21T06:36:29;75649.28;;;-145.10;100.00
56334;BME280;42240;53.626;55.886;2023-11-21T06:38:20;75659.16;;;-145.10;100.00
56334;BME280;42240;53.626;55.886;2023-11-21T06:40:12;75651.25;;;-145.10;100.00
56334;BME280;42240;53.626;55.886;2023-11-21T06:42:06;75611.72;;;-145.10;100.00
56334;BME280;42240;53.626;55.886;2023-11-21T06:43:57;75623.59;;;-145.10;100.00
56334;BME280;42240;53.626;55.886;2023-11-21T06:45:59;75641.38;;;-145.10;100.00
56334;BME280;42240;53.626;55.886;2023-11-21T06:47:51;75607.78;;;-145.10;100.00
56334;BME280;42240;53.626;55.886;2023-11-21T06:49:43;75623.59;;;-145.10;100.00
56334;BME280;42240;53.626;55.886;2023-11-21T06:51:35;75603.81;;;-145.10;100.00
56334;BME280;42240;53.626;55.886;2023-11-21T06:53:26;75607.78;;;-145.10;100.00
56334;BME280;42240;53.626;55.886;2023-11-21T06:55:18;75647.31;;;-145.10;100.00
56334;BME280;42240;53.626;55.886;2023-11-21T06:57:10;75623.59;;;-145.10;100.00
56334;BME280;42240;53.626;55.886;2023-11-21T06:59:02;75589.97;;;-145.10;100.00
56334;BME280;42240;53.626;55.886;2023-11-21T07:00:56;75605.78;;;-145.10;100.00
56334;BME280;42240;53.626;55.886;2023-11-21T07:02:49;75584.06;;;-145.10;100.00
56334;BME280;42240;53.626;55.886;2023-11-21T07:04:40;75566.25;;;-145.10;100.00
56334;BME280;42240;53.626;55.886;2023-11-21T07:06:31;75552.41;;;-145.10;100.00
56334;BME280;42240;53.626;55.886;2023-11-21T07:08:23;75576.13;;;-145.10;100.00
56334;BME280;42240;53.626;55.886;2023-11-21T07:10:14;75578.13;;;-145.10;100.00
56334;BME280;42240;53.626;55.886;2023-11-21T07:12:06;75570.22;;;-145.10;100.00
56334;BME280;42240;53.626;55.886;2023-11-21T07:13:58;75548.47;;;-145.10;100.00
56334;BME280;42240;53.626;55.886;2023-11-21T07:15:50;75542.53;;;-145.10;100.00
56334;BME280;42240;53.626;55.886;2023-11-21T07:17:41;75534.63;;;-145.10;100.00
56334;BME280;42240;53.626;55.886;2023-11-21T07:19:34;75495.09;;;-145.10;100.00
56334;BME280;42240;53.626;55.886;2023-11-21T07:21:26;75493.13;;;-145.10;100.00
56334;BME280;42240;53.626;55.886;2023-11-21T07:23:18;75461.47;;;-145.10;100.00
56334;BME280;42240;53.626;55.886;2023-11-21T07:25:09;75487.19;;;-145.10;100.00
56334;BME280;42240;53.626;55.886;2023-11-21T07:27:01;75516.84;;;-145.10;100.00
56334;BME280;42240;53.626;55.886;2023-11-21T07:28:52;75447.66;;;-145.10;100.00
56334;BME280;42240;53.626;55.886;2023-11-21T07:30:44;75421.94;;;-145.10;100.00
56334;BME280;42240;53.626;55.886;2023-11-21T07:32:35;75443.69;;;-145.10;100.00
56334;BME280;42240;53.626;55.886;2023-11-21T07:34:27;75447.66;;;-145.10;100.00
56334;BME280;42240;53.626;55.886;2023-11-21T07:36:21;75447.66;;;-145.10;100.00
56334;BME280;42240;53.626;55.886;2023-11-21T07:38:13;75394.28;;;-145.10;100.00
56334;BME280;42240;53.626;55.886;2023-11-21T07:40:04;75402.19;;;-145.10;100.00
56334;BME280;42240;53.626;55.886;2023-11-21T07:41:56;75340.91;;;-145.10;100.00
56334;BME280;42240;53.626;55.886;2023-11-21T07:43:49;75323.09;;;-145.10;100.00
56334;BME280;42240;53.626;55.886;2023-11-21T07:45:40;75382.41;;;-145.10;100.00
56334;BME280;42240;53.626;55.886;2023-11-21T07:47:34;75398.22;;;-145.10;100.00
56334;BME280;42240;53.626;55.886;2023-11-21T07:49:26;75348.81;;;-145.10;100.00
56334;BME280;42240;53.626;55.886;2023-11-21T07:51:18;75350.78;;;-145.10;100.00
56334;BME280;42240;53.626;55.886;2023-11-21T07:53:11;75323.09;;;-145.10;100.00
56334;BME280;42240;53.626;55.886;2023-11-21T07:55:03;75287.53;;;-145.10;100.00
56334;BME280;42240;53.626;55.886;2023-11-21T07:56:54;75327.06;;;-145.10;100.00
56334;BME280;42240;53.626;55.886;2023-11-21T07:58:46;75331.00;;;-145.10;100.00
56334;BME280;42240;53.626;55.886;2023-11-21T08:00:38;75358.69;;;-145.10;100.00
56334;BME280;42240;53.626;55.886;2023-11-21T08:02:30;75354.72;;;-145.10;100.00
56334;BME280;42240;53.626;55.886;2023-11-21T08:04:21;75338.91;;;-145.10;100.00
56334;BME280;42240;53.626;55.886;2023-11-21T08:06:13;75321.13;;;-145.10;100.00
56334;BME280;42240;53.626;55.886;2023-11-21T08:08:04;75319.16;;;-145.10;100.00
56334;BME280;42240;53.626;55.886;2023-11-21T08:09:56;75329.03;;;-145.10;100.00
56334;BME280;42240;53.626;55.886;2023-11-21T08:11:47;75315.19;;;-145.10;100.00
56334;BME280;42240;53.626;55.886;2023-11-21T08:13:40;75259.84;;;-145.10;100.00
56334;BME280;42240;53.626;55.886;2023-11-21T08:15:31;75315.19;;;-145.10;100.00
56334;BME280;42240;53.626;55.886;2023-11-21T08:17:23;75301.38;;;-145.10;100.00
56334;BME280;42240;53.626;55.886;2023-11-21T08:19:15;75331.00;;;-145.10;100.00
56334;BME280;42240;53.626;55.886;2023-11-21T08:21:07;75313.22;;;-145.10;100.00
56334;BME280;42240;53.626;55.886;2023-11-21T08:23:00;75251.94;;;-145.10;100.00
56334;BME280;42240;53.626;55.886;2023-11-21T08:24:59;75236.13;;;-145.10;100.00
56334;BME280;42240;53.626;55.886;2023-11-21T08:26:51;75240.09;;;-145.10;99.99
56334;BME280;42240;53.626;55.886;2023-11-21T08:28:43;75253.91;;;-145.10;100.00
56334;BME280;42240;53.626;55.886;2023-11-21T08:30:34;75234.16;;;-145.10;100.00
56334;BME280;42240;53.626;55.886;2023-11-21T08:32:26;75220.31;;;-145.10;100.00
56334;BME280;42240;53.626;55.886;2023-11-21T08:34:17;75208.47;;;-145.10;100.00
56334;BME280;42240;53.626;55.886;2023-11-21T08:36:09;75236.13;;;-145.10;100.00
56334;BME280;42240;53.626;55.886;2023-11-21T08:38:03;75255.91;;;-145.10;100.00
56334;BME280;42240;53.626;55.886;2023-11-21T08:39:54;75240.09;;;-145.10;100.00
56334;BME280;42240;53.626;55.886;2023-11-21T08:41:46;75261.81;;;-145.10;100.00
56334;BME280;42240;53.626;55.886;2023-11-21T08:43:39;75240.09;;;-145.10;100.00
56334;BME280;42240;53.626;55.886;2023-11-21T08:45:30;75198.56;;;-145.10;100.00
56334;BME280;42240;53.626;55.886;2023-11-21T08:47:22;75234.16;;;-145.10;100.00
56334;BME280;42240;53.626;55.886;2023-11-21T08:49:15;75186.72;;;-145.10;100.00
56334;BME280;42240;53.626;55.886;2023-11-21T08:51:09;75249.97;;;-145.10;100.00
56334;BME280;42240;53.626;55.886;2023-11-21T08:53:01;75255.91;;;-145.10;100.00
56334;BME280;42240;53.626;55.886;2023-11-21T08:54:52;75218.34;;;-145.10;100.00
56334;BME280;42240;53.626;55.886;2023-11-21T08:56:47;75202.53;;;-145.10;100.00
56334;BME280;42240;53.626;55.886;2023-11-21T08:58:38;75240.09;;;-145.10;99.34
56334;BME280;42240;53.626;55.886;2023-11-21T09:00:30;75204.50;;;-145.10;99.75
56334;BME280;42240;53.626;55.886;2023-11-21T09:02:21;75228.22;;;-145.10;100.00
56334;BME280;42240;53.626;55.886;2023-11-21T09:04:16;75240.09;;;-145.10;100.00
56334;BME280;42240;53.626;55.886;2023-11-21T09:06:07;75208.47;;;-145.10;100.00
56334;BME280;42240;53.626;55.886;2023-11-21T09:08:01;75218.34;;;-145.10;99.96
56334;BME280;42240;53.626;55.886;2023-11-21T09:09:52;75196.59;;;-145.10;99.26
56334;BME280;42240;53.626;55.886;2023-11-21T09:11:43;75163.00;;;-145.10;98.66
56334;BME280;42240;53.626;55.886;2023-11-21T09:13:36;75184.72;;;-145.10;98.66
56334;BME280;42240;53.626;55.886;2023-11-21T09:15:28;75184.72;;;-145.10;98.80
56334;BME280;42240;53.626;55.886;2023-11-21T09:17:21;75214.38;;;-145.10;99.76
56334;BME280;42240;53.626;55.886;2023-11-21T09:19:13;75208.47;;;-145.10;99.30
56334;BME280;42240;53.626;55.886;2023-11-21T09:21:05;75170.91;;;-145.10;99.76
56334;BME280;42240;53.626;55.886;2023-11-21T09:22:56;75172.88;;;-145.10;100.00
56334;BME280;42240;53.626;55.886;2023-11-21T09:24:48;75188.69;;;-145.10;100.00